Strona główna
METAR-TAF:

METAR-TAF

Lotnisko :

Blacksburg, Wirginia, Stany Zjednoczone

Szerokość geograficzna: 37-13N, Długość geograficzna: 080-25W, wysokość: 650 m

Aktualna obserwacja pogody

Raport powstał 12 minut temu, godzina 02:15 UTC
Cisza
Temperatura 2°C
Wilgotność 80%
Ciśnienie 1019 hPa
Widzialność: 16.1 km
Rozproszone chmury na wysokości 7000 ft

METAR: KBCB 170215Z AUTO 00000KT 10SM SCT070 02/M01 A3010 RMK AO2 T00241007

czas: 21:27 (02:27 UTC)

Prognoza

Raport powstał 3 godziny i 7 minut temu, godzina 23:20 UTC
Prognoza ważna od 17 godzina 00 UTC do 17 godzina 24 UTC
Wiatr 2 kt z kierunków zmiennych
Widzialność: 10 km
Przerywane chmury na wysokości 10000 ft
Od 17 godzina 0700 UTC
Wiatr kt od północ
Widzialność: 10 km
Rozproszone chmury na wysokości 7000 ft
Od 17 godzina 1800 UTC
Wiatr 5 kt od wschodnio-południowy wschód
Widzialność: 10 km
Rozproszone chmury na wysokości 4500 ft

TAF: KBCB 162320Z 1700/1724 VRB02KT P6SM BKN100 FM170700 00000KT P6SM SCT070 FM171800 12005KT P6SM SCT045

Obserwacja i prognoza pogody dla ponad 4000 lotnisk (raport METAR i TAF).

Dostępne stacje oznaczono żółtymi i czerwonymi punktami na mapie.

Najedź kursorem aby zobaczyć nazwę stacji.

Kliknij aby zobaczyć obserwacje i prognozy pogody.

Aby zmienić mapę: kliknij na zielony przycisk z czarnym krzyżykiem, aby powiększyć; na zielony przycisk z myślnikiem, aby pomniejszyć; na zielone strzałki, aby przejść do map sąsiednich.


METAR-TAF: